sensor_id;sensor_type;location;lat;lon;timestamp;pressure;altitude;pressure_sealevel;temperature;humidity
15382;BME280;7789;51.364;12.358;2022-12-07T00:03:31;100181.75;;;5.29;100.00
15382;BME280;7789;51.364;12.358;2022-12-07T00:08:53;100173.44;;;5.24;100.00
15382;BME280;7789;51.364;12.358;2022-12-07T00:14:16;100169.88;;;5.13;100.00
15382;BME280;7789;51.364;12.358;2022-12-07T00:19:39;100169.34;;;4.94;100.00
15382;BME280;7789;51.364;12.358;2022-12-07T00:25:01;100172.84;;;4.93;100.00
15382;BME280;7789;51.364;12.358;2022-12-07T00:30:23;100153.19;;;4.90;100.00
15382;BME280;7789;51.364;12.358;2022-12-07T00:35:47;100155.03;;;4.88;100.00
15382;BME280;7789;51.364;12.358;2022-12-07T00:41:18;100150.41;;;4.79;100.00
15382;BME280;7789;51.364;12.358;2022-12-07T00:46:39;100143.03;;;4.59;100.00
15382;BME280;7789;51.364;12.358;2022-12-07T00:52:03;100150.91;;;4.44;100.00
15382;BME280;7789;51.364;12.358;2022-12-07T00:57:25;100144.81;;;4.31;100.00
15382;BME280;7789;51.364;12.358;2022-12-07T01:02:46;100145.53;;;4.19;100.00
15382;BME280;7789;51.364;12.358;2022-12-07T01:08:09;100142.72;;;4.08;100.00
15382;BME280;7789;51.364;12.358;2022-12-07T01:13:32;100138.84;;;4.01;100.00
15382;BME280;7789;51.364;12.358;2022-12-07T01:18:55;100130.88;;;3.90;100.00
15382;BME280;7789;51.364;12.358;2022-12-07T01:24:18;100132.91;;;3.85;100.00
15382;BME280;7789;51.364;12.358;2022-12-07T01:29:40;100129.13;;;3.76;100.00
15382;BME280;7789;51.364;12.358;2022-12-07T01:35:02;100130.31;;;3.71;100.00
15382;BME280;7789;51.364;12.358;2022-12-07T01:40:26;100118.56;;;3.65;100.00
15382;BME280;7789;51.364;12.358;2022-12-07T01:45:47;100111.91;;;3.61;100.00
15382;BME280;7789;51.364;12.358;2022-12-07T01:51:12;100120.94;;;3.55;100.00
15382;BME280;7789;51.364;12.358;2022-12-07T01:56:40;100113.53;;;3.49;100.00
15382;BME280;7789;51.364;12.358;2022-12-07T02:02:07;100106.13;;;3.43;100.00
15382;BME280;7789;51.364;12.358;2022-12-07T02:07:33;100100.47;;;3.36;100.00
15382;BME280;7789;51.364;12.358;2022-12-07T02:13:01;100094.75;;;3.31;100.00
15382;BME280;7789;51.364;12.358;2022-12-07T02:18:32;100093.47;;;3.24;100.00
15382;BME280;7789;51.364;12.358;2022-12-07T02:24:14;100091.03;;;3.21;100.00
15382;BME280;7789;51.364;12.358;2022-12-07T02:29:40;100085.84;;;3.21;100.00
15382;BME280;7789;51.364;12.358;2022-12-07T02:35:08;100083.19;;;3.23;100.00
15382;BME280;7789;51.364;12.358;2022-12-07T02:40:36;100068.38;;;3.26;100.00
15382;BME280;7789;51.364;12.358;2022-12-07T02:46:03;100053.81;;;3.25;100.00
15382;BME280;7789;51.364;12.358;2022-12-07T02:51:30;100052.66;;;3.15;100.00
15382;BME280;7789;51.364;12.358;2022-12-07T02:56:58;100045.75;;;3.16;100.00
15382;BME280;7789;51.364;12.358;2022-12-07T03:02:28;100036.72;;;3.23;100.00
15382;BME280;7789;51.364;12.358;2022-12-07T03:07:59;100035.88;;;3.22;100.00
15382;BME280;7789;51.364;12.358;2022-12-07T03:13:28;100041.41;;;3.16;100.00
15382;BME280;7789;51.364;12.358;2022-12-07T03:18:56;100043.59;;;3.08;100.00
15382;BME280;7789;51.364;12.358;2022-12-07T03:24:21;100029.47;;;3.14;100.00
15382;BME280;7789;51.364;12.358;2022-12-07T03:29:46;100025.47;;;3.24;100.00
15382;BME280;7789;51.364;12.358;2022-12-07T03:35:14;100016.63;;;3.28;100.00
15382;BME280;7789;51.364;12.358;2022-12-07T03:40:43;100014.16;;;3.26;100.00
15382;BME280;7789;51.364;12.358;2022-12-07T03:46:15;100013.53;;;3.37;100.00
15382;BME280;7789;51.364;12.358;2022-12-07T03:51:46;100013.88;;;3.45;100.00
15382;BME280;7789;51.364;12.358;2022-12-07T03:57:12;100003.56;;;3.45;100.00
15382;BME280;7789;51.364;12.358;2022-12-07T04:02:35;100001.56;;;3.50;100.00
15382;BME280;7789;51.364;12.358;2022-12-07T04:07:59;99998.34;;;3.60;100.00
15382;BME280;7789;51.364;12.358;2022-12-07T04:13:21;99992.59;;;3.69;100.00
15382;BME280;7789;51.364;12.358;2022-12-07T04:18:43;99990.56;;;3.74;100.00
15382;BME280;7789;51.364;12.358;2022-12-07T04:24:06;99986.97;;;3.76;100.00
15382;BME280;7789;51.364;12.358;2022-12-07T04:29:28;99973.50;;;3.85;100.00
15382;BME280;7789;51.364;12.358;2022-12-07T04:34:50;99970.00;;;3.86;100.00
15382;BME280;7789;51.364;12.358;2022-12-07T04:40:17;99969.06;;;3.87;100.00
15382;BME280;7789;51.364;12.358;2022-12-07T04:45:38;99960.38;;;3.88;100.00
15382;BME280;7789;51.364;12.358;2022-12-07T04:51:01;99961.56;;;3.97;100.00
15382;BME280;7789;51.364;12.358;2022-12-07T04:56:25;99949.47;;;3.97;100.00
15382;BME280;7789;51.364;12.358;2022-12-07T05:01:47;99943.94;;;4.03;100.00
15382;BME280;7789;51.364;12.358;2022-12-07T05:07:09;99940.16;;;4.09;100.00
15382;BME280;7789;51.364;12.358;2022-12-07T05:12:32;99944.28;;;4.11;100.00
15382;BME280;7789;51.364;12.358;2022-12-07T05:17:54;99943.78;;;4.19;100.00
15382;BME280;7789;51.364;12.358;2022-12-07T05:23:15;99947.13;;;4.21;100.00
15382;BME280;7789;51.364;12.358;2022-12-07T05:28:38;99935.63;;;4.25;100.00
15382;BME280;7789;51.364;12.358;2022-12-07T05:34:00;99945.72;;;4.29;100.00
15382;BME280;7789;51.364;12.358;2022-12-07T05:39:23;99948.09;;;4.32;100.00
15382;BME280;7789;51.364;12.358;2022-12-07T05:44:46;99941.09;;;4.34;100.00
15382;BME280;7789;51.364;12.358;2022-12-07T05:50:08;99939.22;;;4.36;100.00
15382;BME280;7789;51.364;12.358;2022-12-07T05:55:30;99929.50;;;4.40;100.00
15382;BME280;7789;51.364;12.358;2022-12-07T06:00:55;99927.28;;;4.48;100.00
15382;BME280;7789;51.364;12.358;2022-12-07T06:06:17;99917.34;;;4.54;100.00
15382;BME280;7789;51.364;12.358;2022-12-07T06:11:39;99923.81;;;4.74;100.00
15382;BME280;7789;51.364;12.358;2022-12-07T06:17:20;99913.06;;;4.80;100.00
15382;BME280;7789;51.364;12.358;2022-12-07T06:22:42;99919.78;;;4.82;100.00
15382;BME280;7789;51.364;12.358;2022-12-07T06:28:03;99919.91;;;4.81;100.00
15382;BME280;7789;51.364;12.358;2022-12-07T06:33:27;99919.69;;;4.84;100.00
15382;BME280;7789;51.364;12.358;2022-12-07T06:38:49;99915.72;;;4.66;100.00
15382;BME280;7789;51.364;12.358;2022-12-07T06:44:10;99922.41;;;4.56;100.00
15382;BME280;7789;51.364;12.358;2022-12-07T06:49:34;99927.22;;;4.62;100.00
15382;BME280;7789;51.364;12.358;2022-12-07T06:54:56;99936.16;;;4.70;100.00
15382;BME280;7789;51.364;12.358;2022-12-07T07:00:19;99929.41;;;4.80;100.00
15382;BME280;7789;51.364;12.358;2022-12-07T07:05:43;99929.13;;;4.85;100.00
15382;BME280;7789;51.364;12.358;2022-12-07T07:11:07;99934.00;;;4.89;100.00
15382;BME280;7789;51.364;12.358;2022-12-07T07:16:29;99937.19;;;4.93;100.00
15382;BME280;7789;51.364;12.358;2022-12-07T07:21:53;99940.13;;;4.88;100.00
15382;BME280;7789;51.364;12.358;2022-12-07T07:27:14;99942.38;;;4.93;100.00
15382;BME280;7789;51.364;12.358;2022-12-07T07:32:36;99945.91;;;4.92;100.00
15382;BME280;7789;51.364;12.358;2022-12-07T07:38:00;99954.22;;;4.97;100.00
15382;BME280;7789;51.364;12.358;2022-12-07T07:43:22;99954.81;;;5.00;100.00
15382;BME280;7789;51.364;12.358;2022-12-07T07:48:44;99944.59;;;4.99;100.00
15382;BME280;7789;51.364;12.358;2022-12-07T07:54:07;99945.72;;;4.95;100.00
15382;BME280;7789;51.364;12.358;2022-12-07T07:59:29;99951.72;;;4.95;100.00
15382;BME280;7789;51.364;12.358;2022-12-07T08:04:51;99949.78;;;4.99;100.00
15382;BME280;7789;51.364;12.358;2022-12-07T08:10:15;99954.00;;;5.00;100.00
15382;BME280;7789;51.364;12.358;2022-12-07T08:15:38;99954.09;;;4.98;100.00
15382;BME280;7789;51.364;12.358;2022-12-07T08:21:00;99957.91;;;4.93;100.00
15382;BME280;7789;51.364;12.358;2022-12-07T08:26:24;99945.84;;;5.06;100.00
15382;BME280;7789;51.364;12.358;2022-12-07T08:31:45;99951.66;;;5.22;100.00
15382;BME280;7789;51.364;12.358;2022-12-07T08:37:07;99943.88;;;5.34;100.00
15382;BME280;7789;51.364;12.358;2022-12-07T08:42:31;99953.84;;;5.52;100.00
15382;BME280;7789;51.364;12.358;2022-12-07T08:48:02;99954.47;;;5.68;100.00
15382;BME280;7789;51.364;12.358;2022-12-07T08:53:25;99947.63;;;5.67;100.00
15382;BME280;7789;51.364;12.358;2022-12-07T08:58:49;99956.34;;;5.79;100.00
15382;BME280;7789;51.364;12.358;2022-12-07T09:04:11;99964.53;;;5.85;100.00
15382;BME280;7789;51.364;12.358;2022-12-07T09:09:32;99952.25;;;6.00;100.00
15382;BME280;7789;51.364;12.358;2022-12-07T09:14:56;99961.56;;;6.15;100.00
15382;BME280;7789;51.364;12.358;2022-12-07T09:20:18;99957.81;;;6.19;100.00
15382;BME280;7789;51.364;12.358;2022-12-07T09:25:47;99967.44;;;6.29;100.00
15382;BME280;7789;51.364;12.358;2022-12-07T09:31:10;99965.13;;;6.37;100.00
15382;BME280;7789;51.364;12.358;2022-12-07T09:36:47;99969.59;;;6.35;100.00
15382;BME280;7789;51.364;12.358;2022-12-07T09:42:18;99960.75;;;6.38;100.00
15382;BME280;7789;51.364;12.358;2022-12-07T09:47:49;99955.47;;;6.39;100.00
15382;BME280;7789;51.364;12.358;2022-12-07T09:53:15;99955.16;;;6.44;100.00
15382;BME280;7789;51.364;12.358;2022-12-07T09:58:41;99949.13;;;6.43;100.00
15382;BME280;7789;51.364;12.358;2022-12-07T10:04:10;99948.69;;;6.49;100.00
15382;BME280;7789;51.364;12.358;2022-12-07T10:09:33;99936.09;;;6.56;100.00
15382;BME280;7789;51.364;12.358;2022-12-07T10:14:59;99936.59;;;6.61;100.00
15382;BME280;7789;51.364;12.358;2022-12-07T10:20:29;99938.00;;;6.65;100.00
15382;BME280;7789;51.364;12.358;2022-12-07T10:25:50;99930.50;;;6.73;100.00
15382;BME280;7789;51.364;12.358;2022-12-07T10:31:16;99927.31;;;6.80;100.00
15382;BME280;7789;51.364;12.358;2022-12-07T10:36:41;99933.63;;;6.89;100.00
15382;BME280;7789;51.364;12.358;2022-12-07T10:42:03;99923.03;;;6.92;100.00
15382;BME280;7789;51.364;12.358;2022-12-07T10:47:33;99921.59;;;6.99;100.00
15382;BME280;7789;51.364;12.358;2022-12-07T10:53:23;99922.31;;;7.01;100.00
15382;BME280;7789;51.364;12.358;2022-12-07T10:59:00;99916.56;;;7.08;100.00
15382;BME280;7789;51.364;12.358;2022-12-07T11:04:33;99915.97;;;7.16;100.00
15382;BME280;7789;51.364;12.358;2022-12-07T11:10:08;99909.75;;;7.18;100.00
15382;BME280;7789;51.364;12.358;2022-12-07T11:15:42;99914.09;;;7.18;100.00
15382;BME280;7789;51.364;12.358;2022-12-07T11:21:15;99917.16;;;7.12;100.00
15382;BME280;7789;51.364;12.358;2022-12-07T11:26:56;99905.22;;;7.09;100.00
15382;BME280;7789;51.364;12.358;2022-12-07T11:32:49;99902.94;;;7.05;100.00
15382;BME280;7789;51.364;12.358;2022-12-07T11:38:15;99907.56;;;7.01;100.00
15382;BME280;7789;51.364;12.358;2022-12-07T11:43:54;99907.44;;;7.03;100.00
15382;BME280;7789;51.364;12.358;2022-12-07T11:49:23;99905.69;;;7.03;100.00
15382;BME280;7789;51.364;12.358;2022-12-07T11:54:50;99903.56;;;7.08;100.00
15382;BME280;7789;51.364;12.358;2022-12-07T12:00:17;99906.16;;;7.08;100.00
15382;BME280;7789;51.364;12.358;2022-12-07T12:05:39;99904.53;;;7.18;100.00
15382;BME280;7789;51.364;12.358;2022-12-07T12:11:08;99899.81;;;7.23;100.00
15382;BME280;7789;51.364;12.358;2022-12-07T12:22:37;99880.56;;;7.26;100.00
15382;BME280;7789;51.364;12.358;2022-12-07T12:28:01;99869.69;;;7.31;100.00
15382;BME280;7789;51.364;12.358;2022-12-07T12:33:28;99868.84;;;7.31;100.00
15382;BME280;7789;51.364;12.358;2022-12-07T12:39:08;99873.34;;;7.40;100.00
15382;BME280;7789;51.364;12.358;2022-12-07T12:44:41;99873.34;;;7.40;100.00
15382;BME280;7789;51.364;12.358;2022-12-07T12:50:27;99871.81;;;7.37;100.00
15382;BME280;7789;51.364;12.358;2022-12-07T12:56:32;99849.13;;;7.39;100.00
15382;BME280;7789;51.364;12.358;2022-12-07T13:02:15;99850.06;;;7.38;100.00
15382;BME280;7789;51.364;12.358;2022-12-07T13:08:12;99856.34;;;7.36;100.00
15382;BME280;7789;51.364;12.358;2022-12-07T13:13:36;99858.81;;;7.37;100.00
15382;BME280;7789;51.364;12.358;2022-12-07T13:18:58;99844.06;;;7.38;100.00
15382;BME280;7789;51.364;12.358;2022-12-07T13:24:21;99843.81;;;7.41;100.00
15382;BME280;7789;51.364;12.358;2022-12-07T13:29:44;99835.66;;;7.34;100.00
15382;BME280;7789;51.364;12.358;2022-12-07T13:35:29;99830.00;;;7.29;98.75
15382;BME280;7789;51.364;12.358;2022-12-07T13:41:13;99843.00;;;7.29;98.32
15382;BME280;7789;51.364;12.358;2022-12-07T13:46:44;99840.50;;;7.28;98.33
15382;BME280;7789;51.364;12.358;2022-12-07T13:52:15;99832.84;;;7.27;99.61
15382;BME280;7789;51.364;12.358;2022-12-07T13:57:39;99845.94;;;7.25;98.13
15382;BME280;7789;51.364;12.358;2022-12-07T14:03:03;99846.19;;;7.22;98.08
15382;BME280;7789;51.364;12.358;2022-12-07T14:08:30;99840.03;;;7.23;97.79
15382;BME280;7789;51.364;12.358;2022-12-07T14:13:58;99835.66;;;7.13;97.96
15382;BME280;7789;51.364;12.358;2022-12-07T14:19:47;99853.00;;;7.01;97.68
15382;BME280;7789;51.364;12.358;2022-12-07T14:25:21;99857.94;;;6.93;97.27
15382;BME280;7789;51.364;12.358;2022-12-07T14:30:44;99854.63;;;6.91;98.17
15382;BME280;7789;51.364;12.358;2022-12-07T14:36:08;99854.41;;;6.83;97.54
15382;BME280;7789;51.364;12.358;2022-12-07T14:41:30;99852.47;;;6.74;96.74
15382;BME280;7789;51.364;12.358;2022-12-07T14:47:11;99853.97;;;6.66;97.36
15382;BME280;7789;51.364;12.358;2022-12-07T14:52:55;99851.00;;;6.59;97.35
15382;BME280;7789;51.364;12.358;2022-12-07T14:58:37;99840.38;;;6.51;96.75
15382;BME280;7789;51.364;12.358;2022-12-07T15:04:00;99840.47;;;6.50;97.10
15382;BME280;7789;51.364;12.358;2022-12-07T15:09:23;99843.41;;;6.45;96.87
15382;BME280;7789;51.364;12.358;2022-12-07T15:14:45;99848.44;;;6.36;96.61
15382;BME280;7789;51.364;12.358;2022-12-07T15:20:12;99844.88;;;6.26;96.27
15382;BME280;7789;51.364;12.358;2022-12-07T15:25:34;99850.63;;;6.18;96.76
15382;BME280;7789;51.364;12.358;2022-12-07T15:30:56;99855.41;;;6.12;96.44
15382;BME280;7789;51.364;12.358;2022-12-07T15:36:39;99853.84;;;6.09;96.46
15382;BME280;7789;51.364;12.358;2022-12-07T15:42:01;99856.44;;;6.09;96.41
15382;BME280;7789;51.364;12.358;2022-12-07T15:47:22;99867.66;;;6.10;95.90
15382;BME280;7789;51.364;12.358;2022-12-07T15:52:45;99862.25;;;6.13;96.57
15382;BME280;7789;51.364;12.358;2022-12-07T15:58:07;99860.38;;;6.15;96.77
15382;BME280;7789;51.364;12.358;2022-12-07T16:03:29;99858.41;;;6.18;96.40
15382;BME280;7789;51.364;12.358;2022-12-07T16:08:52;99888.38;;;6.22;96.68
15382;BME280;7789;51.364;12.358;2022-12-07T16:14:14;99882.28;;;6.11;97.53
15382;BME280;7789;51.364;12.358;2022-12-07T16:19:39;99878.16;;;6.08;99.02
15382;BME280;7789;51.364;12.358;2022-12-07T16:25:02;99873.50;;;6.01;99.89
15382;BME280;7789;51.364;12.358;2022-12-07T16:30:31;99872.38;;;5.92;100.00
15382;BME280;7789;51.364;12.358;2022-12-07T16:36:02;99876.59;;;5.82;100.00
15382;BME280;7789;51.364;12.358;2022-12-07T16:41:33;99865.06;;;5.74;100.00
15382;BME280;7789;51.364;12.358;2022-12-07T16:46:59;99870.78;;;5.66;100.00
15382;BME280;7789;51.364;12.358;2022-12-07T16:52:24;99866.75;;;5.62;100.00
15382;BME280;7789;51.364;12.358;2022-12-07T16:57:52;99863.09;;;5.65;100.00
15382;BME280;7789;51.364;12.358;2022-12-07T17:03:30;99863.94;;;5.65;100.00
15382;BME280;7789;51.364;12.358;2022-12-07T17:08:58;99861.44;;;5.64;100.00
15382;BME280;7789;51.364;12.358;2022-12-07T17:14:28;99866.53;;;5.65;100.00
15382;BME280;7789;51.364;12.358;2022-12-07T17:20:09;99852.84;;;5.63;100.00
15382;BME280;7789;51.364;12.358;2022-12-07T17:25:43;99855.44;;;5.63;100.00
15382;BME280;7789;51.364;12.358;2022-12-07T17:31:12;99847.97;;;5.59;100.00
15382;BME280;7789;51.364;12.358;2022-12-07T17:36:37;99861.25;;;5.54;100.00
15382;BME280;7789;51.364;12.358;2022-12-07T17:42:09;99857.84;;;5.54;100.00
15382;BME280;7789;51.364;12.358;2022-12-07T17:47:50;99858.56;;;5.56;100.00
15382;BME280;7789;51.364;12.358;2022-12-07T17:53:21;99862.09;;;5.55;100.00
15382;BME280;7789;51.364;12.358;2022-12-07T17:58:50;99849.72;;;5.58;100.00
15382;BME280;7789;51.364;12.358;2022-12-07T18:04:17;99853.97;;;5.59;100.00
15382;BME280;7789;51.364;12.358;2022-12-07T18:09:50;99842.31;;;5.54;100.00
15382;BME280;7789;51.364;12.358;2022-12-07T18:15:17;99845.31;;;5.48;100.00
15382;BME280;7789;51.364;12.358;2022-12-07T18:21:01;99850.69;;;5.45;100.00
15382;BME280;7789;51.364;12.358;2022-12-07T18:26:32;99839.00;;;5.39;100.00
15382;BME280;7789;51.364;12.358;2022-12-07T18:32:21;99840.78;;;5.39;100.00
15382;BME280;7789;51.364;12.358;2022-12-07T18:38:12;99838.19;;;5.39;100.00
15382;BME280;7789;51.364;12.358;2022-12-07T18:43:38;99844.47;;;5.35;100.00
15382;BME280;7789;51.364;12.358;2022-12-07T18:49:06;99841.31;;;5.32;100.00
15382;BME280;7789;51.364;12.358;2022-12-07T18:54:47;99840.66;;;5.28;100.00
15382;BME280;7789;51.364;12.358;2022-12-07T19:00:15;99844.19;;;5.27;100.00
15382;BME280;7789;51.364;12.358;2022-12-07T19:05:38;99840.44;;;5.31;100.00
15382;BME280;7789;51.364;12.358;2022-12-07T19:11:18;99835.19;;;5.33;100.00
15382;BME280;7789;51.364;12.358;2022-12-07T19:17:00;99835.28;;;5.31;100.00
15382;BME280;7789;51.364;12.358;2022-12-07T19:22:40;99826.69;;;5.31;100.00
15382;BME280;7789;51.364;12.358;2022-12-07T19:28:13;99833.00;;;5.27;100.00
15382;BME280;7789;51.364;12.358;2022-12-07T19:33:37;99827.94;;;5.25;100.00
15382;BME280;7789;51.364;12.358;2022-12-07T19:39:01;99834.34;;;5.20;100.00
15382;BME280;7789;51.364;12.358;2022-12-07T19:44:38;99829.19;;;5.20;100.00
15382;BME280;7789;51.364;12.358;2022-12-07T19:50:09;99836.00;;;5.21;100.00
15382;BME280;7789;51.364;12.358;2022-12-07T19:55:38;99825.44;;;5.24;100.00
15382;BME280;7789;51.364;12.358;2022-12-07T20:01:08;99831.16;;;5.29;100.00
15382;BME280;7789;51.364;12.358;2022-12-07T20:06:36;99834.34;;;5.32;100.00
15382;BME280;7789;51.364;12.358;2022-12-07T20:12:14;99832.47;;;5.34;100.00
15382;BME280;7789;51.364;12.358;2022-12-07T20:18:00;99820.34;;;5.35;100.00
15382;BME280;7789;51.364;12.358;2022-12-07T20:23:31;99819.50;;;5.34;100.00
15382;BME280;7789;51.364;12.358;2022-12-07T20:28:54;99818.38;;;5.38;100.00
15382;BME280;7789;51.364;12.358;2022-12-07T20:34:34;99815.78;;;5.38;100.00
15382;BME280;7789;51.364;12.358;2022-12-07T20:40:12;99817.53;;;5.38;100.00
15382;BME280;7789;51.364;12.358;2022-12-07T20:45:43;99807.91;;;5.39;100.00
15382;BME280;7789;51.364;12.358;2022-12-07T20:51:09;99797.75;;;5.37;100.00
15382;BME280;7789;51.364;12.358;2022-12-07T20:56:42;99798.69;;;5.36;100.00
15382;BME280;7789;51.364;12.358;2022-12-07T21:02:09;99800.34;;;5.37;100.00
15382;BME280;7789;51.364;12.358;2022-12-07T21:07:39;99796.09;;;5.36;100.00
15382;BME280;7789;51.364;12.358;2022-12-07T21:13:03;99790.81;;;5.37;100.00
15382;BME280;7789;51.364;12.358;2022-12-07T21:18:30;99796.00;;;5.37;100.00
15382;BME280;7789;51.364;12.358;2022-12-07T21:23:59;99791.13;;;5.33;100.00
15382;BME280;7789;51.364;12.358;2022-12-07T21:29:33;99787.91;;;5.29;100.00
15382;BME280;7789;51.364;12.358;2022-12-07T21:35:05;99793.19;;;5.28;100.00
15382;BME280;7789;51.364;12.358;2022-12-07T21:40:33;99778.81;;;5.24;100.00
15382;BME280;7789;51.364;12.358;2022-12-07T21:45:56;99771.75;;;5.26;100.00
15382;BME280;7789;51.364;12.358;2022-12-07T21:51:27;99776.00;;;5.27;100.00
15382;BME280;7789;51.364;12.358;2022-12-07T21:56:56;99776.00;;;5.27;100.00
15382;BME280;7789;51.364;12.358;2022-12-07T22:02:21;99776.13;;;5.25;100.00
15382;BME280;7789;51.364;12.358;2022-12-07T22:07:48;99772.59;;;5.26;100.00
15382;BME280;7789;51.364;12.358;2022-12-07T22:13:14;99768.56;;;5.22;100.00
15382;BME280;7789;51.364;12.358;2022-12-07T22:18:38;99764.19;;;5.23;100.00
15382;BME280;7789;51.364;12.358;2022-12-07T22:24:05;99770.00;;;5.26;100.00
15382;BME280;7789;51.364;12.358;2022-12-07T22:29:36;99780.06;;;5.31;100.00
15382;BME280;7789;51.364;12.358;2022-12-07T22:35:00;99771.13;;;5.35;100.00
15382;BME280;7789;51.364;12.358;2022-12-07T22:40:31;99765.09;;;5.34;100.00
15382;BME280;7789;51.364;12.358;2022-12-07T22:45:58;99765.31;;;5.31;100.00
15382;BME280;7789;51.364;12.358;2022-12-07T22:51:28;99760.75;;;5.35;100.00
15382;BME280;7789;51.364;12.358;2022-12-07T22:56:59;99748.53;;;5.37;100.00
15382;BME280;7789;51.364;12.358;2022-12-07T23:02:28;99742.63;;;5.35;100.00
15382;BME280;7789;51.364;12.358;2022-12-07T23:07:51;99727.06;;;5.35;100.00
15382;BME280;7789;51.364;12.358;2022-12-07T23:13:16;99731.22;;;5.37;100.00
15382;BME280;7789;51.364;12.358;2022-12-07T23:19:00;99731.81;;;5.40;100.00
15382;BME280;7789;51.364;12.358;2022-12-07T23:24:30;99721.66;;;5.38;100.00
15382;BME280;7789;51.364;12.358;2022-12-07T23:29:55;99731.09;;;5.38;100.00
15382;BME280;7789;51.364;12.358;2022-12-07T23:35:22;99721.13;;;5.45;100.00
15382;BME280;7789;51.364;12.358;2022-12-07T23:40:46;99718.53;;;5.45;100.00
15382;BME280;7789;51.364;12.358;2022-12-07T23:46:15;99708.88;;;5.47;100.00
15382;BME280;7789;51.364;12.358;2022-12-07T23:51:44;99718.09;;;5.51;100.00
15382;BME280;7789;51.364;12.358;2022-12-07T23:57:08;99706.59;;;5.55;100.00
